Hokendauqua, Pennsylvania
Current Conditions -  °F | °C
As of 10:51 PM on Sunday 25 Jan 2015 (Local Time) from KABE Reporting Station
Overcast Overcast  
Wind Chill: 21°   Ceiling: 4800
Heat Index: 30°   Visibility: 10mi
Dew Point: 16°   Wind: 10mph
Humidity: 56%   Direction: 30°NNE
Pressure: 29.97"   Gusts: NA
Location:  40.6562°N, 75.5043°W
Report Text: KABE 260351Z 03009KT 10SM OVC048 M01/M09 A2997 RMK AO2 SNB0258E28 SLP151 P0000 T10111089
Loading
Personal Weather Stations






























Interactive Weather Map New forecast layout! Learn more

10-Day Weather Forecast

Advertisements
Track Severe Weather on mobile